Time;durP1;ratioP1;P1;durP2;ratioP2;P2;SDS_P1;SDS_P2;PMS_P1;PMS_P2;Temp;Humidity;BMP_temperature;BMP_pressure;BME280_temperature;BME280_humidity;BME280_pressure;Samples;Min_cycle;Max_cycle;Signal;HPM_P1;HPM_P2
2023/03/31 00:01:48;;;;;;;46.30;7.45;;;;;;;;;;5058726;28;20029;-72
2023/03/31 00:04:14;;;;;;;52.22;7.28;;;;;;;;;;5063677;28;20031;-72
2023/03/31 00:06:41;;;;;;;50.83;7.00;;;;;;;;;;5054580;28;20029;-73
2023/03/31 00:09:11;;;;;;;61.78;8.13;;;;;;;;;;5054676;28;20025;-72
2023/03/31 00:11:38;;;;;;;47.13;7.82;;;;;;;;;;5054360;28;20025;-72
2023/03/31 00:14:07;;;;;;;52.22;7.32;;;;;;;;;;5053614;28;20479;-73
2023/03/31 00:16:36;;;;;;;54.72;7.13;;;;;;;;;;5053777;28;20033;-72
2023/03/31 00:19:02;;;;;;;41.70;6.65;;;;;;;;;;5053627;28;20029;-72
2023/03/31 00:21:32;;;;;;;49.75;7.80;;;;;;;;;;5053757;28;20522;-71
2023/03/31 00:24:03;;;;;;;41.47;7.15;;;;;;;;;;5053479;28;20029;-73
2023/03/31 00:26:29;;;;;;;51.22;7.43;;;;;;;;;;5053535;28;20021;-72
2023/03/31 00:28:56;;;;;;;38.92;6.45;;;;;;;;;;5053549;28;20029;-72
2023/03/31 00:31:22;;;;;;;47.58;6.68;;;;;;;;;;5053497;28;20028;-72
2023/03/31 00:33:49;;;;;;;55.60;6.95;;;;;;;;;;5053395;28;20032;-71
2023/03/31 00:36:19;;;;;;;47.25;6.20;;;;;;;;;;5053433;28;20078;-72
2023/03/31 00:38:46;;;;;;;44.10;6.53;;;;;;;;;;5053266;28;20486;-71
2023/03/31 00:41:13;;;;;;;47.88;5.68;;;;;;;;;;5053341;28;20024;-72
2023/03/31 00:43:39;;;;;;;52.38;6.53;;;;;;;;;;5053042;28;20056;-72
2023/03/31 00:46:05;;;;;;;48.65;6.65;;;;;;;;;;5053313;28;20127;-72
2023/03/31 00:48:32;;;;;;;42.17;6.32;;;;;;;;;;5053182;28;20545;-72
2023/03/31 00:51:01;;;;;;;42.97;7.78;;;;;;;;;;5053114;28;20032;-71
2023/03/31 00:53:29;;;;;;;46.33;6.75;;;;;;;;;;5052835;28;20032;-72
2023/03/31 00:55:58;;;;;;;49.88;7.28;;;;;;;;;;5053003;28;20090;-72
2023/03/31 00:58:27;;;;;;;44.67;6.55;;;;;;;;;;5052769;28;20294;-73
2023/03/31 01:00:54;;;;;;;40.38;6.60;;;;;;;;;;5053230;28;20033;-72
2023/03/31 01:03:21;;;;;;;38.50;6.00;;;;;;;;;;5052889;28;20596;-73
2023/03/31 01:05:49;;;;;;;44.95;5.13;;;;;;;;;;5053557;28;20013;-72
2023/03/31 01:08:15;;;;;;;53.55;7.45;;;;;;;;;;5052907;28;20040;-72
2023/03/31 01:10:44;;;;;;;44.25;7.07;;;;;;;;;;5053173;28;20025;-72
2023/03/31 01:13:11;;;;;;;44.22;6.13;;;;;;;;;;5052540;28;20361;-72
2023/03/31 01:15:38;;;;;;;47.15;6.22;;;;;;;;;;5052611;28;20103;-73
2023/03/31 01:18:05;;;;;;;37.22;5.15;;;;;;;;;;5052619;28;20441;-71
2023/03/31 01:20:44;;;;;;;35.47;6.03;;;;;;;;;;5052538;28;20017;-71
2023/03/31 01:23:13;;;;;;;44.67;5.90;;;;;;;;;;5052365;28;20036;-72
2023/03/31 01:25:42;;;;;;;38.95;5.72;;;;;;;;;;5052850;28;20021;-71
2023/03/31 01:28:13;;;;;;;40.88;6.53;;;;;;;;;;5034387;28;20063;-71
2023/03/31 01:30:39;;;;;;;45.17;5.68;;;;;;;;;;5052431;28;20150;-71
2023/03/31 01:33:11;;;;;;;41.03;5.53;;;;;;;;;;5052081;28;20423;-74
2023/03/31 01:35:58;;;;;;;39.85;6.20;;;;;;;;;;5052231;28;20074;-71
2023/03/31 01:38:42;;;;;;;43.15;6.65;;;;;;;;;;5052227;28;20025;-71
2023/03/31 01:41:14;;;;;;;49.63;6.22;;;;;;;;;;5052281;28;20445;-72
2023/03/31 01:43:45;;;;;;;37.78;5.78;;;;;;;;;;5052084;28;20025;-71
2023/03/31 01:46:30;;;;;;;40.15;6.15;;;;;;;;;;5051494;28;20044;-72
2023/03/31 01:49:01;;;;;;;44.72;6.03;;;;;;;;;;5052114;28;20035;-71
2023/03/31 01:51:37;;;;;;;41.15;5.80;;;;;;;;;;5052175;28;20029;-72
2023/03/31 01:54:21;;;;;;;49.05;6.15;;;;;;;;;;5051851;28;20025;-72
2023/03/31 01:56:58;;;;;;;49.33;6.78;;;;;;;;;;5051876;28;20025;-72
2023/03/31 01:59:29;;;;;;;38.35;5.10;;;;;;;;;;5052268;28;20055;-73
2023/03/31 02:01:58;;;;;;;41.40;5.40;;;;;;;;;;5051635;28;20271;-72
2023/03/31 02:04:41;;;;;;;45.88;6.20;;;;;;;;;;5051742;28;20055;-71
2023/03/31 02:07:16;;;;;;;35.45;6.03;;;;;;;;;;5051909;28;20104;-71
2023/03/31 02:09:43;;;;;;;47.40;5.45;;;;;;;;;;5051720;28;20108;-72
2023/03/31 02:12:11;;;;;;;34.05;5.07;;;;;;;;;;5050386;28;20101;-71
2023/03/31 02:14:39;;;;;;;42.95;7.05;;;;;;;;;;5049176;28;20060;-71
2023/03/31 02:17:07;;;;;;;40.17;5.78;;;;;;;;;;5051391;28;20100;-70
2023/03/31 02:19:38;;;;;;;30.27;5.05;;;;;;;;;;5069994;28;20037;-72
2023/03/31 02:22:05;;;;;;;39.33;5.82;;;;;;;;;;5070966;28;20525;-73
2023/03/31 02:24:33;;;;;;;38.63;6.32;;;;;;;;;;5071035;28;20029;-71
2023/03/31 02:27:04;;;;;;;38.63;5.68;;;;;;;;;;5071298;28;20017;-71
2023/03/31 02:29:30;;;;;;;34.85;5.68;;;;;;;;;;5071158;28;20033;-71
2023/03/31 02:32:07;;;;;;;37.95;6.00;;;;;;;;;;5071130;28;20025;-71
2023/03/31 02:34:34;;;;;;;36.72;6.03;;;;;;;;;;5071234;28;20409;-71
2023/03/31 02:37:00;;;;;;;40.30;6.20;;;;;;;;;;5071178;28;20052;-71
2023/03/31 02:39:28;;;;;;;34.50;5.50;;;;;;;;;;5070893;28;20028;-71
2023/03/31 02:41:55;;;;;;;42.13;6.85;;;;;;;;;;5070818;28;20029;-71
2023/03/31 02:44:21;;;;;;;42.08;5.82;;;;;;;;;;5070794;28;20021;-71
2023/03/31 02:46:49;;;;;;;43.47;6.60;;;;;;;;;;5070796;28;20027;-72
2023/03/31 02:49:15;;;;;;;42.17;8.68;;;;;;;;;;5070646;28;20051;-72
2023/03/31 02:51:45;;;;;;;38.50;8.57;;;;;;;;;;5070916;28;20031;-72
2023/03/31 02:54:11;;;;;;;44.17;6.38;;;;;;;;;;5070630;28;20496;-71
2023/03/31 02:56:56;;;;;;;40.60;6.20;;;;;;;;;;5070775;28;20064;-72
2023/03/31 02:59:31;;;;;;;39.00;6.20;;;;;;;;;;5070387;28;20028;-72
2023/03/31 03:02:00;;;;;;;35.70;5.70;;;;;;;;;;5070540;28;20024;-72
2023/03/31 03:04:32;;;;;;;38.53;6.95;;;;;;;;;;5070669;28;20032;-72
2023/03/31 03:07:05;;;;;;;38.75;5.75;;;;;;;;;;5070645;28;20422;-73
2023/03/31 03:09:34;;;;;;;34.95;5.72;;;;;;;;;;5070741;28;20032;-73
2023/03/31 03:12:06;;;;;;;32.70;6.03;;;;;;;;;;5070262;28;20027;-74
2023/03/31 03:14:35;;;;;;;38.00;6.22;;;;;;;;;;5071741;28;20030;-72
2023/03/31 03:17:05;;;;;;;42.00;6.55;;;;;;;;;;5071901;28;20035;-76
2023/03/31 03:19:31;;;;;;;35.20;6.60;;;;;;;;;;5071704;28;20482;-73
2023/03/31 03:21:58;;;;;;;28.60;5.85;;;;;;;;;;5073059;28;20438;-72
2023/03/31 03:24:28;;;;;;;33.97;6.90;;;;;;;;;;5078057;28;20542;-72
2023/03/31 03:26:54;;;;;;;36.45;6.90;;;;;;;;;;5078255;28;20020;-71
2023/03/31 03:29:20;;;;;;;32.90;7.22;;;;;;;;;;5078763;28;20429;-71
2023/03/31 03:31:46;;;;;;;34.03;7.20;;;;;;;;;;5078187;28;20036;-72
2023/03/31 03:34:12;;;;;;;29.88;7.70;;;;;;;;;;5078286;28;20029;-72
2023/03/31 03:36:39;;;;;;;42.65;8.25;;;;;;;;;;5078165;28;20035;-72
2023/03/31 03:39:06;;;;;;;37.10;7.85;;;;;;;;;;5078111;28;20122;-71
2023/03/31 03:41:32;;;;;;;34.65;7.95;;;;;;;;;;5078231;28;20043;-72
2023/03/31 03:44:01;;;;;;;32.40;6.35;;;;;;;;;;5077763;28;20024;-73
2023/03/31 03:46:27;;;;;;;37.35;7.10;;;;;;;;;;5078090;28;20031;-73
2023/03/31 03:48:54;;;;;;;37.03;7.50;;;;;;;;;;5078062;28;20028;-74
2023/03/31 03:51:20;;;;;;;32.42;7.82;;;;;;;;;;5078060;28;20097;-72
2023/03/31 03:53:46;;;;;;;31.92;7.00;;;;;;;;;;5078024;28;20029;-72
2023/03/31 03:56:12;;;;;;;39.30;8.30;;;;;;;;;;5077925;28;20028;-72
2023/03/31 03:58:38;;;;;;;28.35;7.28;;;;;;;;;;5078317;28;20028;-73
2023/03/31 04:01:04;;;;;;;30.95;6.57;;;;;;;;;;5078662;28;20082;-70
2023/03/31 04:03:31;;;;;;;37.55;8.00;;;;;;;;;;5075915;28;20052;-73
2023/03/31 04:05:57;;;;;;;29.00;7.00;;;;;;;;;;5048131;28;20099;-73
2023/03/31 04:08:24;;;;;;;29.48;7.55;;;;;;;;;;5069073;28;20141;-73
2023/03/31 04:10:50;;;;;;;32.88;8.40;;;;;;;;;;5068600;28;20382;-73
2023/03/31 04:13:17;;;;;;;34.35;7.40;;;;;;;;;;5046606;28;20032;-74
2023/03/31 04:15:43;;;;;;;29.17;7.20;;;;;;;;;;5067206;28;20024;-74
2023/03/31 04:18:09;;;;;;;40.25;8.70;;;;;;;;;;5066094;28;20032;-73
2023/03/31 04:20:38;;;;;;;35.75;8.13;;;;;;;;;;5053067;28;20035;-73
2023/03/31 04:23:08;;;;;;;31.70;7.57;;;;;;;;;;5065266;28;20028;-73
2023/03/31 04:25:37;;;;;;;32.20;7.55;;;;;;;;;;5068517;28;20158;-71
2023/03/31 04:28:05;;;;;;;29.55;8.05;;;;;;;;;;5071483;28;20020;-72
2023/03/31 04:30:32;;;;;;;37.75;8.88;;;;;;;;;;5068573;28;20029;-73
2023/03/31 04:32:59;;;;;;;34.05;8.52;;;;;;;;;;5065026;28;20441;-74
2023/03/31 04:35:26;;;;;;;36.35;8.25;;;;;;;;;;5062078;28;20512;-73
2023/03/31 04:37:59;;;;;;;38.30;8.07;;;;;;;;;;5066165;28;20072;-72
2023/03/31 04:40:25;;;;;;;31.73;8.45;;;;;;;;;;5074370;28;20104;-71
2023/03/31 04:42:51;;;;;;;34.40;9.32;;;;;;;;;;5074607;28;20479;-72
2023/03/31 04:45:18;;;;;;;32.17;8.68;;;;;;;;;;5074275;28;20046;-73
2023/03/31 04:47:44;;;;;;;36.25;8.85;;;;;;;;;;5074020;28;20509;-72
2023/03/31 04:50:10;;;;;;;33.10;8.75;;;;;;;;;;5073713;28;20107;-72
2023/03/31 04:52:37;;;;;;;34.15;8.68;;;;;;;;;;5073724;28;20029;-73
2023/03/31 04:55:03;;;;;;;34.17;8.43;;;;;;;;;;5074905;28;20045;-74
2023/03/31 04:57:29;;;;;;;36.45;9.57;;;;;;;;;;5073841;28;20032;-73
2023/03/31 04:59:55;;;;;;;34.38;9.00;;;;;;;;;;5074344;28;20021;-73
2023/03/31 05:02:24;;;;;;;30.30;9.57;;;;;;;;;;5073931;28;20051;-73
2023/03/31 05:04:51;;;;;;;35.15;9.30;;;;;;;;;;5074450;28;20029;-74
2023/03/31 05:07:17;;;;;;;39.80;10.07;;;;;;;;;;5073596;28;20076;-73
2023/03/31 05:09:44;;;;;;;32.05;10.30;;;;;;;;;;5073720;28;20562;-75
2023/03/31 05:12:10;;;;;;;43.42;10.50;;;;;;;;;;5074460;28;20042;-72
2023/03/31 05:14:36;;;;;;;44.08;10.85;;;;;;;;;;5074489;28;20150;-72
2023/03/31 05:17:02;;;;;;;37.42;12.35;;;;;;;;;;5073845;28;20493;-74
2023/03/31 05:19:28;;;;;;;32.72;10.15;;;;;;;;;;5074513;28;20074;-72
2023/03/31 05:21:54;;;;;;;32.70;10.80;;;;;;;;;;5074116;28;20390;-75
2023/03/31 05:24:20;;;;;;;35.60;11.13;;;;;;;;;;5066627;28;20025;-76
2023/03/31 05:26:51;;;;;;;34.47;10.75;;;;;;;;;;5066066;28;20037;-74
2023/03/31 05:29:17;;;;;;;35.28;10.75;;;;;;;;;;5064584;28;20029;-76
2023/03/31 05:31:43;;;;;;;43.13;11.40;;;;;;;;;;5063628;28;20478;-76
2023/03/31 05:34:09;;;;;;;48.53;12.95;;;;;;;;;;5060186;28;20112;-73
2023/03/31 05:36:36;;;;;;;38.47;11.77;;;;;;;;;;5062861;28;20448;-74
2023/03/31 05:39:02;;;;;;;32.70;11.23;;;;;;;;;;5067802;28;20020;-74
2023/03/31 05:41:28;;;;;;;37.25;11.27;;;;;;;;;;5067519;28;20020;-74
2023/03/31 05:43:54;;;;;;;42.50;12.45;;;;;;;;;;5062178;28;20035;-73
2023/03/31 05:46:20;;;;;;;37.95;11.60;;;;;;;;;;5067900;28;20083;-73
2023/03/31 05:48:46;;;;;;;41.53;12.40;;;;;;;;;;5077472;28;20032;-72
2023/03/31 05:51:12;;;;;;;34.53;12.00;;;;;;;;;;5085880;28;20062;-73
2023/03/31 05:53:38;;;;;;;38.22;12.07;;;;;;;;;;5085203;28;20028;-73
2023/03/31 05:56:05;;;;;;;43.55;12.18;;;;;;;;;;5082770;28;20029;-73
2023/03/31 05:58:33;;;;;;;38.08;11.85;;;;;;;;;;5065403;28;20031;-75
2023/03/31 06:01:06;;;;;;;40.30;12.00;;;;;;;;;;5065917;28;20040;-74
2023/03/31 06:03:36;;;;;;;36.33;11.75;;;;;;;;;;5068195;28;20062;-72
2023/03/31 06:06:04;;;;;;;44.95;12.35;;;;;;;;;;5060889;28;20075;-72
2023/03/31 06:08:30;;;;;;;32.70;11.52;;;;;;;;;;5063882;28;20429;-74
2023/03/31 06:10:56;;;;;;;39.78;12.23;;;;;;;;;;5060497;28;20025;-74
2023/03/31 06:13:22;;;;;;;43.85;12.32;;;;;;;;;;5063704;28;20074;-73
2023/03/31 06:15:58;;;;;;;37.90;12.20;;;;;;;;;;5061816;28;20020;-72
2023/03/31 06:18:27;;;;;;;32.30;12.27;;;;;;;;;;5056063;28;20390;-73
2023/03/31 06:20:53;;;;;;;39.45;11.10;;;;;;;;;;5052749;28;20017;-72
2023/03/31 06:23:19;;;;;;;35.65;11.85;;;;;;;;;;5052422;28;20029;-73
2023/03/31 06:25:45;;;;;;;42.35;11.40;;;;;;;;;;5052480;28;20028;-73
2023/03/31 06:28:11;;;;;;;37.08;11.52;;;;;;;;;;5052304;28;20075;-72
2023/03/31 06:30:37;;;;;;;33.20;10.90;;;;;;;;;;5051915;28;20036;-72
2023/03/31 06:33:04;;;;;;;39.88;10.85;;;;;;;;;;5051605;28;20033;-72
2023/03/31 06:35:30;;;;;;;37.13;10.50;;;;;;;;;;5052084;28;20021;-73
2023/03/31 06:37:56;;;;;;;37.67;11.00;;;;;;;;;;5052147;28;20056;-72
2023/03/31 06:40:22;;;;;;;38.60;11.18;;;;;;;;;;5051907;28;20028;-72
2023/03/31 06:42:48;;;;;;;38.20;10.30;;;;;;;;;;5051563;28;20479;-72
2023/03/31 06:45:14;;;;;;;38.55;10.32;;;;;;;;;;5051865;28;20029;-71
2023/03/31 06:47:40;;;;;;;32.90;9.85;;;;;;;;;;5052086;28;20031;-72
2023/03/31 06:50:07;;;;;;;29.25;9.77;;;;;;;;;;5051670;28;20032;-72
2023/03/31 06:52:33;;;;;;;44.70;10.70;;;;;;;;;;5051461;28;20071;-72
2023/03/31 06:54:59;;;;;;;41.25;11.52;;;;;;;;;;5051773;28;20482;-72
2023/03/31 06:57:26;;;;;;;32.15;10.02;;;;;;;;;;5051177;28;20072;-71
2023/03/31 06:59:52;;;;;;;39.10;10.85;;;;;;;;;;5051890;28;20104;-72
2023/03/31 07:02:18;;;;;;;45.10;10.98;;;;;;;;;;5051410;28;20108;-72
2023/03/31 07:04:44;;;;;;;44.85;10.05;;;;;;;;;;5051513;28;20084;-71
2023/03/31 07:07:10;;;;;;;32.60;9.45;;;;;;;;;;5051340;28;20018;-72
2023/03/31 07:09:36;;;;;;;27.30;9.88;;;;;;;;;;5051395;28;20035;-74
2023/03/31 07:12:05;;;;;;;29.77;10.10;;;;;;;;;;5051572;28;20067;-72
2023/03/31 07:14:31;;;;;;;33.13;9.77;;;;;;;;;;5051866;28;20029;-71
2023/03/31 07:16:58;;;;;;;37.22;10.05;;;;;;;;;;5051474;28;20021;-71
2023/03/31 07:19:24;;;;;;;37.92;10.40;;;;;;;;;;5051373;28;20417;-73
2023/03/31 07:21:50;;;;;;;34.65;10.50;;;;;;;;;;5051403;28;20028;-71
2023/03/31 07:24:16;;;;;;;30.95;9.40;;;;;;;;;;5051515;28;20055;-72
2023/03/31 07:26:42;;;;;;;31.55;9.63;;;;;;;;;;5051442;28;20096;-72
2023/03/31 07:29:08;;;;;;;35.40;10.30;;;;;;;;;;5051674;28;20467;-72
2023/03/31 07:31:34;;;;;;;30.23;9.70;;;;;;;;;;5051490;28;20036;-73
2023/03/31 07:34:01;;;;;;;29.85;10.02;;;;;;;;;;5051442;28;20059;-73
2023/03/31 07:36:27;;;;;;;27.38;9.45;;;;;;;;;;5051320;28;20100;-72
2023/03/31 07:38:53;;;;;;;32.33;8.98;;;;;;;;;;5051339;28;20029;-73
2023/03/31 07:41:20;;;;;;;30.85;9.30;;;;;;;;;;5051437;28;20067;-72
2023/03/31 07:43:47;;;;;;;34.65;10.48;;;;;;;;;;5051225;28;20029;-72
2023/03/31 07:46:17;;;;;;;33.50;9.68;;;;;;;;;;5052074;28;20025;-73
2023/03/31 07:48:45;;;;;;;28.85;9.85;;;;;;;;;;5051423;28;20067;-71
2023/03/31 07:51:11;;;;;;;23.45;9.00;;;;;;;;;;5033857;28;20041;-72
2023/03/31 07:53:37;;;;;;;29.80;9.57;;;;;;;;;;5051240;28;20067;-75
2023/03/31 07:56:03;;;;;;;25.80;8.73;;;;;;;;;;5051769;28;20383;-75
2023/03/31 07:58:29;;;;;;;32.28;9.60;;;;;;;;;;5051281;28;20032;-75
2023/03/31 08:00:56;;;;;;;32.47;8.88;;;;;;;;;;5051664;28;20083;-76
2023/03/31 08:03:22;;;;;;;26.02;8.80;;;;;;;;;;5051056;28;20051;-72
2023/03/31 08:05:51;;;;;;;23.63;7.93;;;;;;;;;;5051009;28;20055;-72
2023/03/31 08:08:17;;;;;;;25.73;8.27;;;;;;;;;;5050770;28;20017;-73
2023/03/31 08:10:43;;;;;;;27.52;8.65;;;;;;;;;;5054215;28;20372;-73
2023/03/31 08:13:09;;;;;;;28.88;8.02;;;;;;;;;;5054758;28;20036;-74
2023/03/31 08:15:35;;;;;;;26.02;8.45;;;;;;;;;;5073501;28;20032;-73
2023/03/31 08:18:02;;;;;;;29.40;7.75;;;;;;;;;;5074329;28;20470;-73
2023/03/31 08:20:28;;;;;;;23.95;7.05;;;;;;;;;;5054598;28;20590;-72
2023/03/31 08:22:54;;;;;;;33.10;7.65;;;;;;;;;;5054366;28;20068;-74
2023/03/31 08:25:22;;;;;;;18.05;6.90;;;;;;;;;;5055058;28;20029;-72
2023/03/31 08:27:49;;;;;;;25.40;6.35;;;;;;;;;;5054581;28;20024;-71
2023/03/31 08:30:17;;;;;;;24.10;6.82;;;;;;;;;;5054648;28;20123;-74
2023/03/31 08:32:43;;;;;;;29.60;7.53;;;;;;;;;;5053920;28;20032;-73
2023/03/31 08:35:09;;;;;;;22.30;6.93;;;;;;;;;;5054500;28;20116;-72
2023/03/31 08:37:36;;;;;;;18.88;7.30;;;;;;;;;;5054465;28;20112;-73
2023/03/31 08:40:04;;;;;;;25.63;6.65;;;;;;;;;;5054661;28;20033;-73
2023/03/31 08:42:30;;;;;;;22.50;7.30;;;;;;;;;;5054134;28;20021;-72
2023/03/31 08:44:56;;;;;;;21.10;6.18;;;;;;;;;;5054258;28;20029;-72
2023/03/31 08:47:23;;;;;;;28.40;6.45;;;;;;;;;;5054071;28;20021;-72
2023/03/31 08:49:53;;;;;;;21.83;5.53;;;;;;;;;;5066594;28;20362;-73
2023/03/31 08:52:22;;;;;;;14.40;6.00;;;;;;;;;;5074016;28;20478;-73
2023/03/31 08:54:50;;;;;;;28.17;7.65;;;;;;;;;;5073866;28;20536;-72
2023/03/31 08:57:19;;;;;;;16.73;5.32;;;;;;;;;;5073691;28;20036;-72
2023/03/31 08:59:45;;;;;;;17.55;5.35;;;;;;;;;;5073372;28;20058;-72
2023/03/31 09:02:27;;;;;;;16.63;5.78;;;;;;;;;;5073620;28;20021;-72
2023/03/31 09:05:05;;;;;;;19.20;5.82;;;;;;;;;;5073806;28;20105;-72
2023/03/31 09:07:38;;;;;;;16.35;5.30;;;;;;;;;;5073628;28;20020;-73
2023/03/31 09:10:12;;;;;;;13.02;4.82;;;;;;;;;;5073375;28;20029;-73
2023/03/31 09:12:38;;;;;;;14.15;4.53;;;;;;;;;;5073347;28;20520;-71
2023/03/31 09:15:09;;;;;;;16.25;5.03;;;;;;;;;;5073349;28;20028;-73
2023/03/31 09:17:40;;;;;;;13.65;4.38;;;;;;;;;;5073426;28;20055;-73
2023/03/31 09:20:12;;;;;;;14.50;4.82;;;;;;;;;;5073540;28;20031;-72
2023/03/31 09:22:41;;;;;;;16.67;4.03;;;;;;;;;;5073252;28;20021;-72
2023/03/31 09:25:16;;;;;;;18.08;4.47;;;;;;;;;;5073348;28;20111;-73
2023/03/31 09:27:43;;;;;;;15.07;4.32;;;;;;;;;;5073526;28;20021;-73
2023/03/31 09:30:11;;;;;;;16.33;4.45;;;;;;;;;;5073392;28;20027;-72
2023/03/31 09:32:38;;;;;;;20.20;3.90;;;;;;;;;;5072851;28;20028;-71
2023/03/31 09:35:32;;;;;;;14.20;4.40;;;;;;;;;;5073425;28;20025;-71
2023/03/31 09:37:58;;;;;;;10.80;4.00;;;;;;;;;;5070047;28;20117;-72
2023/03/31 09:40:26;;;;;;;9.38;3.42;;;;;;;;;;5073264;28;20419;-74
2023/03/31 09:43:03;;;;;;;15.73;3.38;;;;;;;;;;5072815;28;20024;-73
2023/03/31 09:45:30;;;;;;;11.70;3.58;;;;;;;;;;5073056;28;20027;-73
2023/03/31 09:48:01;;;;;;;14.73;3.53;;;;;;;;;;5072729;28;20474;-72
2023/03/31 09:50:28;;;;;;;8.07;2.83;;;;;;;;;;5073088;28;20069;-74
2023/03/31 09:52:57;;;;;;;13.02;3.17;;;;;;;;;;5057451;28;20087;-72
2023/03/31 09:55:41;;;;;;;10.25;3.47;;;;;;;;;;5063301;28;20025;-72
2023/03/31 09:58:11;;;;;;;9.55;3.13;;;;;;;;;;5060288;28;20039;-73
2023/03/31 10:00:40;;;;;;;11.25;3.03;;;;;;;;;;5060893;28;20061;-73
2023/03/31 10:03:06;;;;;;;9.45;2.92;;;;;;;;;;5061620;28;20075;-74
2023/03/31 10:05:32;;;;;;;8.88;3.42;;;;;;;;;;5062840;28;20029;-71
2023/03/31 10:08:16;;;;;;;19.10;4.00;;;;;;;;;;5063847;28;20482;-73
2023/03/31 10:10:51;;;;;;;11.13;3.30;;;;;;;;;;5055782;28;20076;-75
2023/03/31 10:13:23;;;;;;;10.73;3.38;;;;;;;;;;5063690;28;20432;-74
2023/03/31 10:15:52;;;;;;;11.70;3.58;;;;;;;;;;5058621;28;20104;-74
2023/03/31 10:18:19;;;;;;;13.02;5.10;;;;;;;;;;5059907;28;20120;-74
2023/03/31 10:20:51;;;;;;;13.45;4.13;;;;;;;;;;5056570;28;20025;-74
2023/03/31 10:23:22;;;;;;;12.68;3.40;;;;;;;;;;5054442;28;20028;-73
2023/03/31 10:25:49;;;;;;;7.90;3.10;;;;;;;;;;5060336;28;20420;-73
2023/03/31 10:28:17;;;;;;;10.93;3.83;;;;;;;;;;5062275;28;20024;-73
2023/03/31 10:30:47;;;;;;;10.02;3.63;;;;;;;;;;5069003;28;20028;-73
2023/03/31 10:33:16;;;;;;;9.35;4.07;;;;;;;;;;5060992;28;20062;-72
2023/03/31 10:35:42;;;;;;;10.35;4.10;;;;;;;;;;5065666;28;20420;-72
2023/03/31 10:38:11;;;;;;;9.55;3.58;;;;;;;;;;5063729;28;20024;-74
2023/03/31 10:40:37;;;;;;;13.55;3.92;;;;;;;;;;5059026;28;20013;-75
2023/03/31 10:43:03;;;;;;;11.88;4.80;;;;;;;;;;5069617;28;20063;-72
2023/03/31 10:45:31;;;;;;;15.48;4.47;;;;;;;;;;5062583;28;20374;-73
2023/03/31 10:47:58;;;;;;;13.55;4.53;;;;;;;;;;5061173;28;20028;-74
2023/03/31 10:50:30;;;;;;;11.43;3.60;;;;;;;;;;5057244;28;20028;-73
2023/03/31 10:53:01;;;;;;;15.73;3.88;;;;;;;;;;5056959;28;20016;-73
2023/03/31 10:55:33;;;;;;;15.23;3.83;;;;;;;;;;5061732;28;20021;-72
2023/03/31 10:58:19;;;;;;;13.60;4.43;;;;;;;;;;5070732;28;20032;-73
2023/03/31 11:00:45;;;;;;;12.00;3.85;;;;;;;;;;5040639;28;20482;-73
2023/03/31 11:03:30;;;;;;;9.13;3.70;;;;;;;;;;5051620;28;20032;-73
2023/03/31 11:06:05;;;;;;;7.97;3.13;;;;;;;;;;5051637;28;20454;-73
2023/03/31 11:08:50;;;;;;;8.57;3.15;;;;;;;;;;5051476;28;20056;-75
2023/03/31 11:11:22;;;;;;;6.57;2.80;;;;;;;;;;5067556;28;20029;-72
2023/03/31 11:13:56;;;;;;;13.98;3.03;;;;;;;;;;5071446;28;20035;-72
2023/03/31 11:16:22;;;;;;;12.48;2.53;;;;;;;;;;5071627;28;20024;-73
2023/03/31 11:18:54;;;;;;;13.02;3.13;;;;;;;;;;5071557;28;20505;-72
2023/03/31 11:21:23;;;;;;;13.20;4.10;;;;;;;;;;5067734;28;20028;-73
2023/03/31 11:24:08;;;;;;;12.00;3.78;;;;;;;;;;5072220;28;20412;-72
2023/03/31 11:26:52;;;;;;;8.27;4.10;;;;;;;;;;5070276;28;20067;-73
2023/03/31 11:29:40;;;;;;;12.80;3.67;;;;;;;;;;5072483;28;20031;-73
2023/03/31 11:32:24;;;;;;;10.25;3.65;;;;;;;;;;5071852;28;20312;-73
2023/03/31 11:35:03;;;;;;;11.15;3.03;;;;;;;;;;5073370;28;20024;-73
2023/03/31 11:37:30;;;;;;;7.22;2.70;;;;;;;;;;5071871;28;20029;-73
2023/03/31 11:39:59;;;;;;;8.75;3.20;;;;;;;;;;5061513;28;20417;-73
2023/03/31 11:42:27;;;;;;;9.40;3.33;;;;;;;;;;5069283;28;20119;-76
2023/03/31 11:45:00;;;;;;;11.32;4.60;;;;;;;;;;5063459;28;20463;-75
2023/03/31 11:47:29;;;;;;;11.75;3.90;;;;;;;;;;5068549;28;20432;-75
2023/03/31 11:49:57;;;;;;;9.00;3.33;;;;;;;;;;5066398;28;20031;-75
2023/03/31 11:52:30;;;;;;;10.60;3.42;;;;;;;;;;5067003;28;20812;-73
2023/03/31 11:55:22;;;;;;;11.07;3.15;;;;;;;;;;5066243;28;20028;-74
2023/03/31 11:58:05;;;;;;;14.00;3.30;;;;;;;;;;5066137;28;20049;-73
2023/03/31 12:00:34;;;;;;;9.48;2.80;;;;;;;;;;5069140;28;20055;-72
2023/03/31 12:03:03;;;;;;;12.10;4.60;;;;;;;;;;5070382;28;20031;-73
2023/03/31 12:05:31;;;;;;;13.48;3.13;;;;;;;;;;5068800;28;20020;-73
2023/03/31 12:08:23;;;;;;;12.35;2.70;;;;;;;;;;5061807;28;20025;-76
2023/03/31 12:11:00;;;;;;;8.70;2.58;;;;;;;;;;5064724;28;20041;-74
2023/03/31 12:13:43;;;;;;;9.77;2.80;;;;;;;;;;5064814;28;20025;-77
2023/03/31 12:16:23;;;;;;;11.98;2.47;;;;;;;;;;5069504;28;20029;-74
2023/03/31 12:18:57;;;;;;;7.00;2.25;;;;;;;;;;5074660;28;20085;-74
2023/03/31 12:21:25;;;;;;;9.85;2.10;;;;;;;;;;5054798;28;20045;-75
2023/03/31 12:23:51;;;;;;;11.77;2.63;;;;;;;;;;5059343;28;20059;-74
2023/03/31 12:26:17;;;;;;;9.18;3.08;;;;;;;;;;5053574;28;20025;-74
2023/03/31 12:28:44;;;;;;;9.57;2.30;;;;;;;;;;5053400;28;20410;-75
2023/03/31 12:31:12;;;;;;;10.07;2.92;;;;;;;;;;5053281;28;20033;-76
2023/03/31 12:33:43;;;;;;;9.65;2.63;;;;;;;;;;5065737;28;20392;-75
2023/03/31 12:36:25;;;;;;;14.88;2.95;;;;;;;;;;5074132;28;20079;-74
2023/03/31 12:38:54;;;;;;;7.13;3.03;;;;;;;;;;5054272;28;20036;-74
2023/03/31 12:41:38;;;;;;;11.25;3.50;;;;;;;;;;5054578;28;20025;-74
2023/03/31 12:44:24;;;;;;;15.98;3.90;;;;;;;;;;5054054;28;20025;-74
2023/03/31 12:46:53;;;;;;;7.88;3.20;;;;;;;;;;5054073;28;20075;-72
2023/03/31 12:49:19;;;;;;;9.23;3.30;;;;;;;;;;5054136;28;20060;-72
2023/03/31 12:51:54;;;;;;;11.55;4.53;;;;;;;;;;5060718;28;20490;-73
2023/03/31 12:54:32;;;;;;;13.68;4.15;;;;;;;;;;5073476;28;20056;-72
2023/03/31 12:57:01;;;;;;;18.38;5.00;;;;;;;;;;5068464;28;20079;-73
2023/03/31 12:59:33;;;;;;;10.38;4.32;;;;;;;;;;5063730;28;20103;-73
2023/03/31 13:02:08;;;;;;;14.30;4.82;;;;;;;;;;5067676;28;20031;-72
2023/03/31 13:04:35;;;;;;;15.85;5.20;;;;;;;;;;5061195;28;20460;-73
2023/03/31 13:07:02;;;;;;;15.43;4.40;;;;;;;;;;5070929;28;20056;-74
2023/03/31 13:09:28;;;;;;;11.40;3.97;;;;;;;;;;5065014;28;20478;-73
2023/03/31 13:11:54;;;;;;;13.27;4.72;;;;;;;;;;5066443;28;20040;-72
2023/03/31 13:14:25;;;;;;;11.73;4.53;;;;;;;;;;5062489;28;20048;-73
2023/03/31 13:16:54;;;;;;;10.75;4.45;;;;;;;;;;5069050;28;20062;-73
2023/03/31 13:19:29;;;;;;;9.05;4.13;;;;;;;;;;5062401;28;20475;-72
2023/03/31 13:21:56;;;;;;;16.00;5.10;;;;;;;;;;5059768;28;20029;-73
2023/03/31 13:24:25;;;;;;;14.23;4.88;;;;;;;;;;5069224;28;20058;-75
2023/03/31 13:26:52;;;;;;;11.95;3.95;;;;;;;;;;5061976;28;20108;-73
2023/03/31 13:29:36;;;;;;;10.60;4.40;;;;;;;;;;5061383;28;20160;-74
2023/03/31 13:32:02;;;;;;;12.95;4.10;;;;;;;;;;5063305;28;20028;-75
2023/03/31 13:34:46;;;;;;;11.93;4.47;;;;;;;;;;5063645;28;20101;-72
2023/03/31 13:37:15;;;;;;;11.52;4.60;;;;;;;;;;5061342;28;20041;-72
2023/03/31 13:39:50;;;;;;;12.20;3.92;;;;;;;;;;5061152;28;20060;-72
2023/03/31 13:42:25;;;;;;;14.48;4.82;;;;;;;;;;5061149;28;20124;-73
2023/03/31 13:44:54;;;;;;;7.90;4.00;;;;;;;;;;5061023;28;20021;-74
2023/03/31 13:47:39;;;;;;;12.93;4.57;;;;;;;;;;5061012;28;20048;-75
2023/03/31 13:50:06;;;;;;;;;;;;;;;;;;5061489;28;20512;-73
2023/03/31 13:52:47;;;;;;;11.55;5.43;;;;;;;;;;5061743;28;19909;-73
2023/03/31 13:55:32;;;;;;;14.85;4.88;;;;;;;;;;5059551;28;20078;-75
2023/03/31 13:58:17;;;;;;;12.95;4.45;;;;;;;;;;5060689;28;20068;-73
2023/03/31 14:00:58;;;;;;;7.97;4.03;;;;;;;;;;5065932;28;20025;-72
2023/03/31 14:03:27;;;;;;;17.15;6.03;;;;;;;;;;5060838;28;20071;-71
2023/03/31 14:06:01;;;;;;;12.57;4.95;;;;;;;;;;5053142;28;20498;-74
2023/03/31 14:08:27;;;;;;;;;;;;;;;;;;5053267;28;20033;-73
2023/03/31 14:10:53;;;;;;;13.40;4.13;;;;;;;;;;5060284;28;19905;-72
2023/03/31 14:13:23;;;;;;;10.98;4.13;;;;;;;;;;5071776;28;20107;-72
2023/03/31 14:15:53;;;;;;;9.20;4.05;;;;;;;;;;5057076;28;20029;-71
2023/03/31 14:18:25;;;;;;;14.50;5.78;;;;;;;;;;5052473;28;20029;-73
2023/03/31 14:21:10;;;;;;;9.50;4.45;;;;;;;;;;5052263;28;20029;-71
2023/03/31 14:23:36;;;;;;;;;;;;;;;;;;5051931;28;20029;-71
2023/03/31 14:26:25;;;;;;;11.70;3.58;;;;;;;;;;5069170;28;19908;-72
2023/03/31 14:29:03;;;;;;;10.88;3.75;;;;;;;;;;5070450;28;20074;-71
2023/03/31 14:31:34;;;;;;;9.90;3.90;;;;;;;;;;5072000;28;20479;-74
2023/03/31 14:34:08;;;;;;;10.95;3.70;;;;;;;;;;5072524;28;20143;-73
2023/03/31 14:36:56;;;;;;;10.23;3.10;;;;;;;;;;5072382;28;20436;-73
2023/03/31 14:39:23;;;;;;;12.57;3.42;;;;;;;;;;5071553;28;20025;-72
2023/03/31 14:41:52;;;;;;;10.07;2.90;;;;;;;;;;5071586;28;20024;-72
2023/03/31 14:44:18;;;;;;;4.63;2.28;;;;;;;;;;5072340;28;20097;-72
2023/03/31 14:46:45;;;;;;;9.75;3.60;;;;;;;;;;5072161;28;20044;-72